createdAt,value
2018-09-19T00:02:30.779Z,97028.13
2018-09-19T00:05:54.734Z,97032.41
2018-09-19T00:09:18.768Z,97031.84
2018-09-19T00:12:42.753Z,97027.06
2018-09-19T00:16:06.851Z,97026.64
2018-09-19T00:19:30.909Z,97021.23
2018-09-19T00:22:54.889Z,97024.22
2018-09-19T00:26:18.859Z,97024.98
2018-09-19T00:29:42.867Z,97021.20
2018-09-19T00:33:06.951Z,97019.43
2018-09-19T00:36:31.984Z,97014.34
2018-09-19T00:39:56.804Z,97013.47
2018-09-19T00:43:20.886Z,97016.44
2018-09-19T00:46:45.941Z,97015.73
2018-09-19T00:50:09.928Z,97022.74
2018-09-19T00:53:33.909Z,97012.16
2018-09-19T00:56:57.932Z,97013.17
2018-09-19T01:00:22.067Z,97016.92
2018-09-19T01:03:46.096Z,97021.75
2018-09-19T01:07:10.074Z,97017.48
2018-09-19T01:10:34.112Z,97020.62
2018-09-19T01:13:59.100Z,97021.02
2018-09-19T01:17:23.096Z,97027.86
2018-09-19T01:20:47.128Z,97023.70
2018-09-19T01:24:11.121Z,97026.37
2018-09-19T01:27:35.110Z,97036.63
2018-09-19T01:30:59.098Z,97032.39
2018-09-19T01:34:24.108Z,97037.37
2018-09-19T01:37:48.124Z,97027.36
2018-09-19T01:41:12.187Z,97023.06
2018-09-19T01:44:36.182Z,97021.60
2018-09-19T01:48:00.136Z,97030.88
2018-09-19T01:51:24.233Z,97020.22
2018-09-19T01:54:48.235Z,97024.81
2018-09-19T01:58:12.307Z,97034.61
2018-09-19T02:01:36.356Z,97037.69
2018-09-19T02:05:00.416Z,97038.85
2018-09-19T02:08:24.454Z,97044.80
2018-09-19T02:11:48.998Z,97046.05
2018-09-19T02:15:13.020Z,97043.18
2018-09-19T02:18:37.008Z,97048.97
2018-09-19T02:22:01.018Z,97048.98
2018-09-19T02:25:25.031Z,97050.47
2018-09-19T02:28:49.009Z,97042.39
2018-09-19T02:32:14.012Z,97044.88
2018-09-19T02:35:38.041Z,97047.09
2018-09-19T02:39:02.105Z,97042.98
2018-09-19T02:42:26.080Z,97036.39
2018-09-19T02:45:50.133Z,97043.29
2018-09-19T02:49:14.162Z,97034.97
2018-09-19T02:52:38.150Z,97041.58
2018-09-19T02:56:02.135Z,97046.26
2018-09-19T02:59:26.226Z,97045.11
2018-09-19T03:02:50.751Z,97046.03
2018-09-19T03:06:14.769Z,97042.89
2018-09-19T03:09:38.829Z,97044.98
2018-09-19T03:13:02.869Z,97044.87
2018-09-19T03:16:26.882Z,97050.28
2018-09-19T03:19:50.933Z,97053.73
2018-09-19T03:23:14.964Z,97056.41
2018-09-19T03:26:39.074Z,97052.59
2018-09-19T03:30:03.109Z,97049.95
2018-09-19T03:33:27.097Z,97045.77
2018-09-19T03:36:51.134Z,97044.81
2018-09-19T03:40:15.217Z,97042.69
2018-09-19T03:43:39.320Z,97040.66
2018-09-19T03:47:03.381Z,97036.36
2018-09-19T03:50:27.408Z,97036.84
2018-09-19T03:53:51.422Z,97043.78
2018-09-19T03:57:16.548Z,97045.00
2018-09-19T04:00:40.586Z,97049.74
2018-09-19T04:04:04.668Z,97053.03
2018-09-19T04:07:29.712Z,97051.13
2018-09-19T04:10:53.960Z,97050.02
2018-09-19T04:14:17.956Z,97050.31
2018-09-19T04:17:43.100Z,97047.03
2018-09-19T04:21:07.014Z,97049.55
2018-09-19T04:24:31.020Z,97046.78
2018-09-19T04:27:55.360Z,97054.50
2018-09-19T04:31:20.750Z,97057.95
2018-09-19T04:34:44.982Z,97058.52
2018-09-19T04:38:08.991Z,97065.48
2018-09-19T04:41:32.963Z,97066.25
2018-09-19T04:44:58.258Z,97064.85
2018-09-19T04:48:22.412Z,97073.81
2018-09-19T04:51:46.362Z,97067.55
2018-09-19T04:55:10.384Z,97070.17
2018-09-19T04:58:34.474Z,97070.27
2018-09-19T05:01:58.572Z,97078.27
2018-09-19T05:05:22.606Z,97084.09
2018-09-19T05:08:46.716Z,97080.17
2018-09-19T05:12:10.749Z,97088.26
2018-09-19T05:15:34.800Z,97088.16
2018-09-19T05:18:58.792Z,97098.31
2018-09-19T05:22:22.800Z,97106.52
2018-09-19T05:25:46.885Z,97108.36
2018-09-19T05:29:10.830Z,97108.36
2018-09-19T05:32:34.846Z,97101.85
2018-09-19T05:35:58.856Z,97104.52
2018-09-19T05:39:22.900Z,97108.95
2018-09-19T05:42:47.310Z,97117.52
2018-09-19T05:46:11.434Z,97121.05
2018-09-19T05:49:35.465Z,97125.16
2018-09-19T05:52:59.386Z,97126.09
2018-09-19T05:56:23.351Z,97123.41
2018-09-19T05:59:47.409Z,97133.33
2018-09-19T06:03:11.400Z,97138.30
2018-09-19T06:06:35.384Z,97134.22
2018-09-19T06:09:59.465Z,97143.63
2018-09-19T06:13:23.473Z,97145.30
2018-09-19T06:16:47.637Z,97154.00
2018-09-19T06:20:11.604Z,97150.98
2018-09-19T06:23:35.733Z,97148.65
2018-09-19T06:26:59.813Z,97147.53
2018-09-19T06:30:23.786Z,97149.59
2018-09-19T06:33:48.877Z,97147.91
2018-09-19T06:37:12.873Z,97152.84
2018-09-19T06:40:36.977Z,97162.72
2018-09-19T06:44:00.888Z,97154.84
2018-09-19T06:47:24.917Z,97165.87
2018-09-19T06:50:48.902Z,97170.84
2018-09-19T06:54:13.013Z,97173.95
2018-09-19T06:57:37.030Z,97175.27
2018-09-19T07:01:00.974Z,97173.11
2018-09-19T07:04:25.026Z,97171.88
2018-09-19T07:07:49.308Z,97173.86
2018-09-19T07:11:13.362Z,97177.06
2018-09-19T07:14:37.428Z,97175.13
2018-09-19T07:18:02.400Z,97178.65
2018-09-19T07:21:26.418Z,97190.48
2018-09-19T07:24:50.404Z,97190.05
2018-09-19T07:28:14.473Z,97194.65
2018-09-19T07:31:38.468Z,97195.13
2018-09-19T07:35:03.773Z,97206.23
2018-09-19T07:38:27.845Z,97201.66
2018-09-19T07:41:52.119Z,97198.81
2018-09-19T07:45:16.249Z,97204.31
2018-09-19T07:48:40.349Z,97202.84
2018-09-19T07:52:04.728Z,97202.09
2018-09-19T07:55:28.958Z,97213.79
2018-09-19T07:58:53.072Z,97216.67
2018-09-19T08:02:17.082Z,97218.13
2018-09-19T08:05:41.135Z,97210.56
2018-09-19T08:09:13.024Z,97210.43
2018-09-19T08:12:37.072Z,97214.14
2018-09-19T08:16:02.399Z,97220.50
2018-09-19T08:19:27.708Z,97223.64
2018-09-19T08:22:51.725Z,97221.38
2018-09-19T08:26:15.714Z,97225.57
2018-09-19T08:29:39.732Z,97227.44
2018-09-19T08:33:03.787Z,97227.44
2018-09-19T08:36:27.773Z,97232.75
2018-09-19T08:39:51.795Z,97233.08
2018-09-19T08:43:15.782Z,97234.00
2018-09-19T08:46:39.765Z,97226.52
2018-09-19T08:50:03.768Z,97223.01
2018-09-19T08:53:27.750Z,97224.27
2018-09-19T08:56:51.806Z,97209.95
2018-09-19T09:00:15.761Z,97206.92
2018-09-19T09:03:39.700Z,97206.00
2018-09-19T09:07:03.713Z,97204.68
2018-09-19T09:10:27.761Z,97207.33
2018-09-19T09:13:51.775Z,97207.02
2018-09-19T09:17:17.031Z,97201.42
2018-09-19T09:20:41.269Z,97202.96
2018-09-19T09:24:05.175Z,97206.00
2018-09-19T09:27:29.217Z,97199.67
2018-09-19T09:30:54.392Z,97198.23
2018-09-19T09:34:18.544Z,97195.67
2018-09-19T09:37:42.445Z,97193.83
2018-09-19T09:41:06.608Z,97191.38
2018-09-19T09:44:30.725Z,97194.56
2018-09-19T09:47:54.712Z,97187.81
2018-09-19T09:51:18.665Z,97183.19
2018-09-19T09:54:42.710Z,97181.27
2018-09-19T09:58:07.263Z,97186.55
2018-09-19T10:01:32.264Z,97180.47
2018-09-19T10:04:56.283Z,97180.69
2018-09-19T10:08:20.210Z,97178.34
2018-09-19T10:11:44.212Z,97177.86
2018-09-19T10:15:08.256Z,97177.30
2018-09-19T10:18:32.224Z,97172.66
2018-09-19T10:21:56.262Z,97170.91
2018-09-19T10:25:20.470Z,97163.53
2018-09-19T10:28:44.470Z,97168.33
2018-09-19T10:32:08.621Z,97168.16
2018-09-19T10:35:33.666Z,97162.00
2018-09-19T10:38:58.630Z,97176.52
2018-09-19T10:42:22.651Z,97163.23
2018-09-19T10:45:46.991Z,97161.70
2018-09-19T10:49:11.558Z,97155.89
2018-09-19T10:52:35.535Z,97153.59
2018-09-19T10:56:00.186Z,97161.44
2018-09-19T10:59:24.328Z,97151.47
2018-09-19T11:02:48.562Z,97149.33
2018-09-19T11:06:12.824Z,97147.62
2018-09-19T11:09:37.242Z,97150.47
2018-09-19T11:13:01.297Z,97140.81
2018-09-19T11:16:25.437Z,97146.40
2018-09-19T11:19:49.395Z,97138.46
2018-09-19T11:23:13.556Z,97139.53
2018-09-19T11:26:38.334Z,97138.19
2018-09-19T11:30:02.317Z,97133.91
2018-09-19T11:33:26.404Z,97133.95
2018-09-19T11:36:50.447Z,97132.61
2018-09-19T11:40:15.580Z,97132.67
2018-09-19T11:43:39.641Z,97126.57
2018-09-19T11:47:03.635Z,97127.16
2018-09-19T11:50:27.699Z,97125.92
2018-09-19T11:53:51.707Z,97122.53
2018-09-19T12:05:12.690Z,97117.20
2018-09-19T12:08:36.665Z,97121.25
2018-09-19T12:12:00.689Z,97116.61
2018-09-19T12:15:24.602Z,97111.42
2018-09-19T12:18:48.601Z,97107.02
2018-09-19T12:22:12.561Z,97104.79
2018-09-19T12:25:36.573Z,97098.23
2018-09-19T12:29:00.483Z,97086.85
2018-09-19T12:32:24.445Z,97094.34
2018-09-19T12:35:48.396Z,97093.09
2018-09-19T12:39:12.662Z,97095.47
2018-09-19T12:42:36.810Z,97089.25
2018-09-19T12:46:00.807Z,97085.40
2018-09-19T12:49:24.812Z,97076.08
2018-09-19T12:52:48.792Z,97077.77
2018-09-19T12:56:12.748Z,97070.00
2018-09-19T12:59:37.494Z,97069.66
2018-09-19T13:03:01.418Z,97073.23
2018-09-19T13:06:25.561Z,97068.34
2018-09-19T13:09:49.534Z,97065.47
2018-09-19T13:13:13.715Z,97058.83
2018-09-19T13:16:37.788Z,97063.49
2018-09-19T13:20:01.773Z,97056.02
2018-09-19T13:23:26.175Z,97055.88
2018-09-19T13:26:50.128Z,97052.36
2018-09-19T13:30:14.112Z,97057.89
2018-09-19T13:33:38.271Z,97058.60
2018-09-19T13:37:02.465Z,97053.38
2018-09-19T13:40:26.487Z,97045.57
2018-09-19T13:43:50.628Z,97047.55
2018-09-19T13:47:15.180Z,97048.92
2018-09-19T13:51:02.344Z,97046.98
2018-09-19T13:54:26.446Z,97044.15
2018-09-19T13:57:50.514Z,97041.27
2018-09-19T14:01:14.415Z,97035.30
2018-09-19T14:04:38.446Z,97032.31
2018-09-19T14:08:02.417Z,97029.34
2018-09-19T14:11:26.476Z,97026.69
2018-09-19T14:14:50.456Z,97021.72
2018-09-19T14:18:14.586Z,97016.41
2018-09-19T14:21:38.742Z,97016.39
2018-09-19T14:25:02.808Z,97013.70
2018-09-19T14:28:28.861Z,97010.73
2018-09-19T14:31:52.858Z,97010.20
2018-09-19T14:35:16.805Z,97005.77
2018-09-19T14:38:40.947Z,97009.53
2018-09-19T14:42:04.914Z,97009.56
2018-09-19T14:45:29.115Z,97005.27
2018-09-19T14:48:53.275Z,97005.14
2018-09-19T14:52:18.525Z,97003.45
2018-09-19T14:55:42.511Z,97007.42
2018-09-19T14:59:06.895Z,97010.75
2018-09-19T15:02:30.946Z,97002.11
2018-09-19T15:05:55.006Z,97005.40
2018-09-19T15:09:19.046Z,97006.44
2018-09-19T15:12:43.060Z,96997.75
2018-09-19T15:16:08.240Z,97005.75
2018-09-19T15:19:32.271Z,97003.17
2018-09-19T15:22:56.972Z,97002.09
2018-09-19T15:26:21.330Z,96998.80
2018-09-19T15:29:46.010Z,96996.83
2018-09-19T15:33:10.276Z,96994.00
2018-09-19T15:36:34.277Z,96999.48
2018-09-19T15:39:58.228Z,96999.63
2018-09-19T15:43:22.534Z,96992.63
2018-09-19T15:46:46.541Z,96996.64
2018-09-19T15:50:10.617Z,96997.41
2018-09-19T15:53:34.637Z,97000.13
2018-09-19T15:56:58.964Z,96998.28
2018-09-19T16:00:23.017Z,96997.66
2018-09-19T16:03:47.501Z,97001.76
2018-09-19T16:07:11.516Z,97004.45
2018-09-19T16:10:35.521Z,97003.77
2018-09-19T16:13:59.527Z,97000.50
2018-09-19T16:17:23.495Z,97014.19
2018-09-19T16:20:47.631Z,97008.95
2018-09-19T16:24:11.706Z,97014.75
2018-09-19T16:27:35.802Z,97015.27
2018-09-19T16:30:59.974Z,97021.69
2018-09-19T16:34:24.000Z,97013.82
2018-09-19T16:37:47.978Z,97021.08
2018-09-19T16:41:11.950Z,97019.24
2018-09-19T16:44:35.963Z,97018.78
2018-09-19T16:48:00.006Z,97023.00
2018-09-19T16:51:24.121Z,97026.50
2018-09-19T16:54:48.100Z,97023.22
2018-09-19T16:58:12.191Z,97025.41
2018-09-19T17:01:36.288Z,97025.95
2018-09-19T17:05:01.429Z,97032.38
2018-09-19T17:08:25.402Z,97025.95
2018-09-19T17:11:49.272Z,97027.14
2018-09-19T17:15:13.356Z,97025.00
2018-09-19T17:18:37.341Z,97028.47
2018-09-19T17:22:01.377Z,97023.41
2018-09-19T17:25:25.375Z,97029.25
2018-09-19T17:28:49.274Z,97032.69
2018-09-19T17:32:13.218Z,97035.45
2018-09-19T17:35:37.156Z,97036.23
2018-09-19T17:39:00.998Z,97032.36
2018-09-19T17:42:24.895Z,97031.89
2018-09-19T17:45:49.208Z,97038.81
2018-09-19T17:49:13.150Z,97040.57
2018-09-19T17:52:36.995Z,97043.41
2018-09-19T17:56:00.860Z,97045.58
2018-09-19T17:59:24.836Z,97049.45
2018-09-19T18:02:48.815Z,97051.27
2018-09-19T18:06:14.212Z,97052.66
2018-09-19T18:09:38.663Z,97056.32
2018-09-19T18:13:02.973Z,97056.59
2018-09-19T18:16:27.561Z,97063.53
2018-09-19T18:19:51.793Z,97058.70
2018-09-19T18:23:16.121Z,97066.18
2018-09-19T18:26:40.394Z,97068.30
2018-09-19T18:30:04.607Z,97073.30
2018-09-19T18:33:28.803Z,97073.62
2018-09-19T18:36:52.992Z,97077.98
2018-09-19T18:40:17.135Z,97081.95
2018-09-19T18:43:41.175Z,97086.02
2018-09-19T18:47:05.266Z,97087.33
2018-09-19T18:50:29.315Z,97090.29
2018-09-19T18:53:53.395Z,97088.65
2018-09-19T18:57:17.389Z,97094.66
2018-09-19T19:00:41.423Z,97095.90
2018-09-19T19:04:05.475Z,97097.47
2018-09-19T19:07:29.486Z,97106.86
2018-09-19T19:10:53.660Z,97106.16
2018-09-19T19:14:17.993Z,97108.91
2018-09-19T19:17:42.152Z,97105.85
2018-09-19T19:21:06.299Z,97114.08
2018-09-19T19:24:30.791Z,97109.33
2018-09-19T19:27:54.897Z,97105.94
2018-09-19T19:31:18.986Z,97108.73
2018-09-19T19:34:43.173Z,97114.60
2018-09-19T19:38:07.218Z,97111.97
2018-09-19T19:41:31.136Z,97116.24
2018-09-19T19:44:55.218Z,97116.02
2018-09-19T19:48:19.136Z,97107.16
2018-09-19T19:51:43.299Z,97114.75
2018-09-19T19:55:08.338Z,97122.97
2018-09-19T19:58:32.419Z,97129.48
2018-09-19T20:01:56.504Z,97130.50
2018-09-19T20:05:20.518Z,97134.45
2018-09-19T20:08:45.201Z,97132.39
2018-09-19T20:12:09.237Z,97126.82
2018-09-19T20:15:33.277Z,97129.67
2018-09-19T20:18:57.455Z,97135.45
2018-09-19T20:22:21.481Z,97126.94
2018-09-19T20:25:45.637Z,97132.38
2018-09-19T20:29:09.983Z,97129.38
2018-09-19T20:32:34.307Z,97130.70
2018-09-19T20:35:58.396Z,97129.71
2018-09-19T20:39:22.508Z,97140.36
2018-09-19T20:42:46.643Z,97134.45
2018-09-19T20:46:10.839Z,97128.77
2018-09-19T20:49:35.815Z,97127.37
2018-09-19T20:52:59.825Z,97133.36
2018-09-19T20:56:23.853Z,97133.02
2018-09-19T20:59:47.997Z,97136.40
2018-09-19T21:03:12.242Z,97129.13
2018-09-19T21:06:36.302Z,97141.84
2018-09-19T21:10:00.362Z,97132.33
2018-09-19T21:13:24.326Z,97134.14
2018-09-19T21:16:48.388Z,97126.55
2018-09-19T21:20:12.397Z,97123.36
2018-09-19T21:23:36.364Z,97126.73
2018-09-19T21:27:00.391Z,97123.88
2018-09-19T21:30:24.373Z,97130.08
2018-09-19T21:33:48.364Z,97126.98
2018-09-19T21:37:12.384Z,97123.59
2018-09-19T21:40:36.383Z,97121.48
2018-09-19T21:44:00.358Z,97126.58
2018-09-19T21:47:24.349Z,97130.75
2018-09-19T21:50:48.384Z,97132.39
2018-09-19T21:54:12.379Z,97124.88
2018-09-19T21:57:36.389Z,97120.56
2018-09-19T22:01:05.507Z,97119.52
2018-09-19T22:04:29.569Z,97120.55
2018-09-19T22:07:53.608Z,97113.73
2018-09-19T22:11:17.622Z,97125.13
2018-09-19T22:14:42.982Z,97124.66
2018-09-19T22:18:07.057Z,97123.22
2018-09-19T22:21:31.104Z,97126.73
2018-09-19T22:24:55.280Z,97130.13
2018-09-19T22:28:31.367Z,97125.67
2018-09-19T22:31:59.390Z,97127.87
2018-09-19T22:35:23.554Z,97124.17
2018-09-19T22:38:47.558Z,97122.43
2018-09-19T22:42:11.732Z,97122.35
2018-09-19T22:45:35.771Z,97121.64
2018-09-19T22:48:59.860Z,97121.37
2018-09-19T22:52:23.904Z,97117.82
2018-09-19T22:55:47.944Z,97121.84
2018-09-19T22:59:11.915Z,97122.84
2018-09-19T23:02:35.899Z,97122.97
2018-09-19T23:06:00.053Z,97121.97
2018-09-19T23:09:24.105Z,97118.25
2018-09-19T23:12:48.094Z,97121.94
2018-09-19T23:16:12.069Z,97119.51
2018-09-19T23:19:36.259Z,97122.63
2018-09-19T23:23:00.279Z,97121.59
2018-09-19T23:26:24.347Z,97117.20
2018-09-19T23:29:48.500Z,97125.11
2018-09-19T23:33:12.466Z,97128.03
2018-09-19T23:36:36.467Z,97117.55
2018-09-19T23:40:00.429Z,97123.03
2018-09-19T23:43:24.636Z,97118.47
2018-09-19T23:46:48.640Z,97127.30
2018-09-19T23:50:12.674Z,97115.09
2018-09-19T23:53:36.677Z,97118.00
2018-09-19T23:57:00.864Z,97122.81
